หน้าหลัก
METAR-TAF:

METAR-TAF

ท่าอากาศยาน :

ทูซอน, แอริโซนา, สหรัฐอเมริกา

ละติจูด: 32-08-32N, ลองจิจูด: 111-10-28W, ความสูง: 737 ม.

การสังเกตสภาพอากาศปัจจุบัน

รายงานได้ทำขึ้นเมื่อ 1 ชั่วโมงและ 40 นาทีที่แล้ว ณ เวลา 13:45 UTC
ลม 4 นอตจากตะวันออก
อุณหภูมิ 26°C
ความชื้น 15%
ความกดอากาศ 1007 hPa
ทัศนวิสัย: 16.1 กม.
ท้องฟ้าแจ่มใส

METAR: KRYN 181345Z 09004KT 10SM CLR 26/M03 A2973

เวลา: 08:25 (15:25 UTC)


TAF: หายไป

สังเกตการณ์สภาพอากาศและพยากรณ์อากาศของสนามบินมากกว่า 4000 แห่ง (รายงาน METAR และ TAF).

สถานีที่ดูได้จะแสดงไว้ด้วยจุดสีเหลืองและสีแดงบนแผนที่.

เลื่อนเมาส์ไปเหนือจุดเพื่อดูชื่อสถานี.

แล้วคลิกเพื่อดูสังเกตการณ์และการพยากรณ์สภาพอากาศ.

ในการเปลี่ยนแผนที่: คลิกที่ปุ่มสีเขียวที่มีกากบาทสีดำเพื่อซูมเข้า; ที่ปุ่มสีเขียวที่มีขีดเพื่อซูมออก; หรือที่ลูกศรสีเขียวเพื่อไปยังแผนที่ที่อยู่ติดกัน.


METAR-TAF: